Time;durP1;ratioP1;P1;durP2;ratioP2;P2;SDS_P1;SDS_P2;PMS_P1;PMS_P2;Temp;Humidity;BMP_temperature;BMP_pressure;BME280_temperature;BME280_humidity;BME280_pressure;Samples;Min_cycle;Max_cycle;Signal;HPM_P1;HPM_P2
2023/07/21 00:01:23;;;;;;;18.67;7.55;;;10.80;99.90;;;;;;5055045;28;20049;-23
2023/07/21 00:03:49;;;;;;;15.75;7.55;;;11.10;99.90;;;;;;5039694;28;20057;-23
2023/07/21 00:06:19;;;;;;;13.82;8.05;;;10.60;99.90;;;;;;5046437;28;20056;-23
2023/07/21 00:08:45;;;;;;;13.10;7.88;;;10.80;99.90;;;;;;5054155;28;20037;-22
2023/07/21 00:11:11;;;;;;;14.27;7.10;;;10.70;99.90;;;;;;5038040;28;20040;-23
2023/07/21 00:13:40;;;;;;;12.25;7.53;;;10.40;99.90;;;;;;5043239;28;20041;-23
2023/07/21 00:16:10;;;;;;;9.27;6.70;;;10.70;99.90;;;;;;5038079;28;20055;-23
2023/07/21 00:18:41;;;;;;;15.10;7.50;;;10.50;99.90;;;;;;5052418;28;20402;-23
2023/07/21 00:21:12;;;;;;;9.73;4.90;;;10.00;99.90;;;;;;5054715;28;20059;-23
2023/07/21 00:23:47;;;;;;;6.63;3.28;;;10.70;99.90;;;;;;5055630;28;20051;-24
2023/07/21 00:26:16;;;;;;;3.22;2.15;;;10.60;99.90;;;;;;5054333;28;20036;-23
2023/07/21 00:28:46;;;;;;;2.75;2.08;;;10.10;99.90;;;;;;5055275;28;20093;-23
2023/07/21 00:31:16;;;;;;;4.40;2.00;;;10.00;99.90;;;;;;5034869;28;20590;-23
2023/07/21 00:33:42;;;;;;;4.32;2.63;;;9.70;99.90;;;;;;5035427;28;20087;-23
2023/07/21 00:36:12;;;;;;;4.68;3.00;;;9.60;99.90;;;;;;5031255;28;20073;-23
2023/07/21 00:38:46;;;;;;;8.30;4.10;;;9.50;99.90;;;;;;5051319;28;20045;-23
2023/07/21 00:41:16;;;;;;;8.40;4.50;;;9.40;99.90;;;;;;5035006;28;20049;-23
2023/07/21 00:43:46;;;;;;;11.38;5.70;;;9.60;99.90;;;;;;5034606;28;20049;-23
2023/07/21 00:46:12;;;;;;;8.55;5.22;;;9.50;99.90;;;;;;5051431;28;20049;-23
2023/07/21 00:48:41;;;;;;;8.52;6.10;;;9.40;99.90;;;;;;5045193;28;20178;-23
2023/07/21 00:51:10;;;;;;;13.95;7.35;;;10.00;99.90;;;;;;5052524;28;20041;-23
2023/07/21 00:53:38;;;;;;;10.05;7.10;;;9.70;99.90;;;;;;5047591;28;20041;-23
2023/07/21 00:56:11;;;;;;;12.07;7.55;;;9.70;99.90;;;;;;5035820;28;20045;-23
2023/07/21 00:58:44;;;;;;;19.80;7.85;;;9.50;99.90;;;;;;5017543;28;20061;-23
2023/07/21 01:01:10;;;;;;;17.23;9.30;;;9.50;99.90;;;;;;5056073;28;20611;-23
2023/07/21 01:03:39;;;;;;;14.13;7.80;;;9.50;99.90;;;;;;5053888;28;20116;-23
2023/07/21 01:06:13;;;;;;;15.07;7.85;;;9.80;99.90;;;;;;5053795;28;20564;-23
2023/07/21 01:08:39;;;;;;;16.70;8.90;;;9.70;99.90;;;;;;5028121;28;20502;-23
2023/07/21 01:11:13;;;;;;;28.73;9.48;;;9.90;99.90;;;;;;5045595;28;20057;-23
2023/07/21 01:13:44;;;;;;;11.60;5.15;;;9.50;99.90;;;;;;5061213;28;20061;-23
2023/07/21 01:16:11;;;;;;;13.32;6.13;;;9.50;99.90;;;;;;5032521;28;20061;-23
2023/07/21 01:18:41;;;;;;;9.65;5.32;;;9.20;99.90;;;;;;5034455;28;20498;-23
2023/07/21 01:21:14;;;;;;;4.00;0.98;;;9.20;99.90;;;;;;5050884;28;20048;-23
2023/07/21 01:24:16;;;;;;;354.88;12.32;;;9.60;99.90;;;;;;5052843;28;20040;-23
2023/07/21 01:26:43;;;;;;;372.05;12.73;;;9.00;99.90;;;;;;5054554;28;20142;-23
2023/07/21 01:29:09;;;;;;;43.67;3.00;;;8.80;99.90;;;;;;5048358;28;20132;-23
2023/07/21 01:31:42;;;;;;;58.70;3.00;;;8.80;99.90;;;;;;5060633;28;20052;-23
2023/07/21 01:34:14;;;;;;;4.35;1.90;;;9.00;99.90;;;;;;5034895;28;20407;-23
2023/07/21 01:36:47;;;;;;;9.90;2.67;;;8.30;99.90;;;;;;5034279;28;20053;-23
2023/07/21 01:39:13;;;;;;;5.35;2.20;;;7.90;99.90;;;;;;5034610;28;20050;-22
2023/07/21 01:41:39;;;;;;;3.53;1.83;;;8.50;99.90;;;;;;5034386;28;20132;-23
2023/07/21 01:44:08;;;;;;;2.13;1.30;;;8.60;99.90;;;;;;5047813;28;20128;-23
2023/07/21 01:46:34;;;;;;;16.88;1.52;;;8.50;99.90;;;;;;5053314;28;20128;-22
2023/07/21 01:49:06;;;;;;;2.28;1.20;;;8.60;99.90;;;;;;5041184;28;20476;-23
2023/07/21 01:51:36;;;;;;;1.38;1.00;;;8.10;99.90;;;;;;5039581;28;20053;-23
2023/07/21 01:54:08;;;;;;;1.80;1.27;;;7.70;99.90;;;;;;5052941;28;20457;-23
2023/07/21 01:56:40;;;;;;;2.33;1.63;;;8.70;99.90;;;;;;5053797;28;20060;-23
2023/07/21 01:59:16;;;;;;;2.65;1.95;;;8.30;99.90;;;;;;5053887;28;20041;-23
2023/07/21 02:01:52;;;;;;;5.60;2.72;;;8.70;99.90;;;;;;5042746;28;20046;-23
2023/07/21 02:04:20;;;;;;;7.15;3.50;;;8.80;99.90;;;;;;5033830;28;20049;-23
2023/07/21 02:06:53;;;;;;;9.57;5.55;;;8.40;99.90;;;;;;5032630;28;20045;-23
2023/07/21 02:09:26;;;;;;;9.13;4.38;;;8.50;99.90;;;;;;5033377;28;20513;-23
2023/07/21 02:11:55;;;;;;;8.45;5.20;;;8.90;99.90;;;;;;5034190;28;20475;-22
2023/07/21 02:14:25;;;;;;;12.02;6.10;;;8.80;99.90;;;;;;5049522;28;20048;-23
2023/07/21 02:16:53;;;;;;;7.25;5.10;;;8.70;99.90;;;;;;5047225;28;20052;-23
2023/07/21 02:19:22;;;;;;;7.55;4.45;;;8.70;99.90;;;;;;5042132;28;20037;-23
2023/07/21 02:21:47;;;;;;;5.80;3.30;;;8.70;99.90;;;;;;5050678;28;20045;-22
2023/07/21 02:24:15;;;;;;;8.05;4.35;;;8.90;99.90;;;;;;5033223;28;20052;-23
2023/07/21 02:26:48;;;;;;;8.43;4.47;;;8.80;99.90;;;;;;5033030;28;20073;-21
2023/07/21 02:29:18;;;;;;;10.05;5.05;;;8.70;99.90;;;;;;5032483;28;20061;-23
2023/07/21 02:31:45;;;;;;;9.40;5.07;;;8.70;99.90;;;;;;5036519;28;20056;-23
2023/07/21 02:34:17;;;;;;;14.07;7.25;;;9.00;99.90;;;;;;5042347;28;20053;-22
2023/07/21 02:36:45;;;;;;;17.08;8.73;;;9.00;99.90;;;;;;5058124;28;20044;-23
2023/07/21 02:39:13;;;;;;;17.63;9.90;;;9.00;99.90;;;;;;5057477;28;20094;-23
2023/07/21 02:41:41;;;;;;;19.77;10.85;;;9.70;99.90;;;;;;5058051;28;20055;-23
2023/07/21 02:44:11;;;;;;;19.60;10.55;;;9.20;99.90;;;;;;5045580;28;20053;-22
2023/07/21 02:46:40;;;;;;;18.15;10.48;;;9.30;99.90;;;;;;5038988;28;20057;-22
2023/07/21 02:49:05;;;;;;;16.27;9.93;;;9.40;99.90;;;;;;5049813;28;20037;-23
2023/07/21 02:51:36;;;;;;;18.52;9.60;;;9.40;99.90;;;;;;5036054;28;20557;-23
2023/07/21 02:54:09;;;;;;;15.02;9.00;;;9.30;99.90;;;;;;5043987;28;20076;-23
2023/07/21 02:56:42;;;;;;;16.00;8.85;;;9.30;99.90;;;;;;5052411;28;20053;-23
2023/07/21 02:59:10;;;;;;;;;;;9.30;99.90;;;;;;5050436;28;20042;-23
2023/07/21 03:01:37;;;;;;;20.75;10.43;;;9.40;99.90;;;;;;5039200;28;19968;-22
2023/07/21 03:04:03;;;;;;;18.05;11.88;;;9.40;99.90;;;;;;5020738;28;20519;-22
2023/07/21 03:06:34;;;;;;;22.35;12.52;;;9.40;99.90;;;;;;5044145;28;20103;-23
2023/07/21 03:09:05;;;;;;;23.88;12.43;;;9.50;99.90;;;;;;5042071;28;20386;-22
2023/07/21 03:11:35;;;;;;;23.80;12.10;;;9.40;99.90;;;;;;5055781;28;20077;-23
2023/07/21 03:14:06;;;;;;;23.40;13.95;;;9.60;99.90;;;;;;5056261;28;20037;-23
2023/07/21 03:16:36;;;;;;;22.13;13.35;;;9.70;99.90;;;;;;5045217;28;20127;-23
2023/07/21 03:19:04;;;;;;;20.13;12.63;;;9.60;99.90;;;;;;5053313;28;20033;-23
2023/07/21 03:21:34;;;;;;;23.85;12.82;;;9.50;99.90;;;;;;5055539;28;20045;-23
2023/07/21 03:24:06;;;;;;;23.70;12.35;;;9.50;99.90;;;;;;5046747;28;20044;-23
2023/07/21 03:26:31;;;;;;;19.63;12.40;;;9.50;99.90;;;;;;5045673;28;20056;-23
2023/07/21 03:28:57;;;;;;;25.58;12.98;;;9.60;99.90;;;;;;5056452;28;20057;-22
2023/07/21 03:31:25;;;;;;;20.90;11.93;;;9.50;99.90;;;;;;5042726;28;20132;-22
2023/07/21 03:33:53;;;;;;;19.98;12.07;;;9.60;99.90;;;;;;5050119;28;20132;-23
2023/07/21 03:36:24;;;;;;;21.05;12.32;;;9.90;99.90;;;;;;5035854;28;20047;-22
2023/07/21 03:38:50;;;;;;;18.08;10.60;;;9.40;99.90;;;;;;5036175;28;20411;-23
2023/07/21 03:41:16;;;;;;;15.70;11.27;;;9.40;99.90;;;;;;5043790;28;20041;-23
2023/07/21 03:43:44;;;;;;;21.10;11.90;;;9.50;99.90;;;;;;5034471;28;20045;-22
2023/07/21 03:46:10;;;;;;;19.10;11.52;;;9.50;99.90;;;;;;5036344;28;20081;-23
2023/07/21 03:48:36;;;;;;;14.95;10.77;;;9.50;99.90;;;;;;5038040;28;20109;-22
2023/07/21 03:51:06;;;;;;;20.95;12.50;;;9.40;99.90;;;;;;5035728;28;20049;-21
2023/07/21 03:53:32;;;;;;;14.80;8.85;;;9.50;99.90;;;;;;5048381;28;20045;-23
2023/07/21 03:55:58;;;;;;;11.85;6.35;;;9.40;99.90;;;;;;5045662;28;20057;-22
2023/07/21 03:58:24;;;;;;;7.13;5.10;;;9.30;99.90;;;;;;5043881;28;20041;-23
2023/07/21 04:00:50;;;;;;;8.02;4.90;;;9.00;99.90;;;;;;5036071;28;20134;-23
2023/07/21 04:03:19;;;;;;;12.02;6.90;;;8.90;99.90;;;;;;5039128;28;20049;-22
2023/07/21 04:05:45;;;;;;;11.85;7.40;;;8.80;99.90;;;;;;5035589;28;20054;-23
2023/07/21 04:08:11;;;;;;;12.30;7.20;;;8.80;99.90;;;;;;5035397;28;20049;-22
2023/07/21 04:10:41;;;;;;;13.88;7.72;;;8.90;99.90;;;;;;5034947;28;20037;-23
2023/07/21 04:13:10;;;;;;;11.27;6.97;;;8.90;99.90;;;;;;5036121;28;20056;-22
2023/07/21 04:15:38;;;;;;;12.15;7.50;;;9.10;99.90;;;;;;5053537;28;20041;-23
2023/07/21 04:18:04;;;;;;;15.48;8.43;;;9.10;99.90;;;;;;5048151;28;20037;-22
2023/07/21 04:20:31;;;;;;;16.23;8.95;;;9.30;99.90;;;;;;5035727;28;20052;-23
2023/07/21 04:22:57;;;;;;;18.00;9.77;;;9.30;99.90;;;;;;5043604;28;20487;-23
2023/07/21 04:25:23;;;;;;;15.73;9.38;;;9.50;99.90;;;;;;5035127;28;20056;-23
2023/07/21 04:27:50;;;;;;;13.85;9.00;;;9.50;99.90;;;;;;5048783;28;20051;-23
2023/07/21 04:30:17;;;;;;;19.80;11.40;;;9.60;99.90;;;;;;5054974;28;20083;-22
2023/07/21 04:32:43;;;;;;;21.35;11.85;;;9.60;99.90;;;;;;5055686;28;20114;-23
2023/07/21 04:35:09;;;;;;;21.45;13.05;;;9.80;99.90;;;;;;5045174;28;20483;-23
2023/07/21 04:37:35;;;;;;;18.70;12.18;;;9.80;99.90;;;;;;5053425;28;20045;-23
2023/07/21 04:40:01;;;;;;;20.33;12.98;;;10.10;99.90;;;;;;5053285;28;20559;-23
2023/07/21 04:42:27;;;;;;;22.02;13.60;;;10.10;99.90;;;;;;5054300;28;20045;-23
2023/07/21 04:44:53;;;;;;;23.10;13.55;;;10.20;99.90;;;;;;5042088;28;20049;-23
2023/07/21 04:47:19;;;;;;;16.08;11.10;;;10.40;99.90;;;;;;5066654;28;20042;-22
2023/07/21 04:49:48;;;;;;;20.17;12.05;;;10.40;99.90;;;;;;5054077;28;20041;-22
2023/07/21 04:52:14;;;;;;;18.55;10.85;;;10.40;99.90;;;;;;5030920;28;20071;-22
2023/07/21 04:54:40;;;;;;;21.33;12.68;;;10.50;99.90;;;;;;5048213;28;20383;-23
2023/07/21 04:57:08;;;;;;;22.58;12.98;;;10.80;99.90;;;;;;5053763;28;20051;-23
2023/07/21 04:59:34;;;;;;;20.02;13.05;;;10.60;99.90;;;;;;5035775;28;20046;-23
2023/07/21 05:02:00;;;;;;;18.75;11.45;;;10.80;99.90;;;;;;5034343;28;20123;-22
2023/07/21 05:04:25;;;;;;;19.75;11.05;;;10.90;99.90;;;;;;5016261;28;20037;-23
2023/07/21 05:06:51;;;;;;;18.25;10.30;;;10.90;99.90;;;;;;5043943;28;20048;-23
2023/07/21 05:09:19;;;;;;;18.92;10.18;;;11.10;99.90;;;;;;5044352;28;20044;-23
2023/07/21 05:11:46;;;;;;;14.75;10.05;;;11.20;99.90;;;;;;5044297;28;20041;-23
2023/07/21 05:14:13;;;;;;;17.40;10.52;;;11.50;99.90;;;;;;5050252;28;20527;-23
2023/07/21 05:16:39;;;;;;;17.17;10.48;;;11.50;99.90;;;;;;5035970;28;20498;-23
2023/07/21 05:19:05;;;;;;;15.65;9.75;;;11.50;99.90;;;;;;5034534;28;20128;-23
2023/07/21 05:21:33;;;;;;;17.10;9.60;;;11.70;99.90;;;;;;5042099;28;20129;-23
2023/07/21 05:23:59;;;;;;;14.45;9.23;;;11.70;99.90;;;;;;5051710;28;20116;-23
2023/07/21 05:26:28;;;;;;;13.23;8.63;;;12.20;99.90;;;;;;5053428;28;20124;-23
2023/07/21 05:28:59;;;;;;;12.52;8.32;;;12.30;99.90;;;;;;5044560;28;20055;-23
2023/07/21 05:31:25;;;;;;;13.80;8.50;;;12.40;99.90;;;;;;5040754;28;20487;-23
2023/07/21 05:33:53;;;;;;;11.18;7.45;;;13.40;99.90;;;;;;5053395;28;20051;-23
2023/07/21 05:36:27;;;;;;;15.10;8.50;;;13.70;99.90;;;;;;5053234;28;20124;-23
2023/07/21 05:38:57;;;;;;;10.50;7.15;;;15.10;99.90;;;;;;5045729;28;20045;-23
2023/07/21 05:41:23;;;;;;;14.52;8.13;;;15.70;99.90;;;;;;5033292;28;20053;-23
2023/07/21 05:43:49;;;;;;;14.05;7.25;;;15.70;99.90;;;;;;5037336;28;20051;-23
2023/07/21 05:46:17;;;;;;;11.20;6.63;;;15.30;99.90;;;;;;5051911;28;20045;-23
2023/07/21 05:48:43;;;;;;;10.68;5.97;;;15.20;99.90;;;;;;5052404;28;21604;-23
2023/07/21 05:51:17;;;;;;;8.00;6.53;;;15.50;99.90;;;;;;5049220;28;20056;-22
2023/07/21 05:53:50;;;;;;;10.15;6.70;;;15.90;99.90;;;;;;5043010;28;20045;-23
2023/07/21 05:56:17;;;;;;;9.27;6.30;;;;;;;;;;5036484;28;20052;-23
2023/07/21 05:58:42;;;;;;;11.07;6.68;;;16.60;1.00;;;;;;5051468;28;20450;-23
2023/07/21 06:01:10;;;;;;;9.63;6.05;;;16.80;1.00;;;;;;5053849;28;20044;-23
2023/07/21 06:03:39;;;;;;;8.25;5.93;;;16.70;1.00;;;;;;5051875;28;20110;-23
2023/07/21 06:06:10;;;;;;;9.23;5.80;;;16.60;99.90;;;;;;5053759;28;20041;-23
2023/07/21 06:08:38;;;;;;;9.32;6.07;;;16.40;1.00;;;;;;5050971;28;20076;-23
2023/07/21 06:11:04;;;;;;;12.18;6.50;;;16.40;1.00;;;;;;5049474;28;20094;-22
2023/07/21 06:13:32;;;;;;;9.75;6.50;;;15.90;99.90;;;;;;5033974;28;20443;-23
2023/07/21 06:16:02;;;;;;;9.60;5.95;;;15.80;1.00;;;;;;5052449;28;20057;-23
2023/07/21 06:18:38;;;;;;;7.70;5.88;;;16.90;99.90;;;;;;5052488;28;20407;-24
2023/07/21 06:21:12;;;;;;;8.07;5.80;;;17.30;1.00;;;;;;5053891;28;20465;-24
2023/07/21 06:23:51;;;;;;;10.25;5.25;;;17.70;1.00;;;;;;5047694;28;20080;-24
2023/07/21 06:26:24;;;;;;;9.57;4.85;;;18.40;99.90;;;;;;5059740;28;20037;-25
2023/07/21 06:28:52;;;;;;;8.02;4.70;;;18.70;1.00;;;;;;5038776;28;20061;-25
2023/07/21 06:31:18;;;;;;;9.75;4.78;;;18.80;99.90;;;;;;5053488;28;20110;-25
2023/07/21 06:33:48;;;;;;;8.43;4.25;;;18.80;1.00;;;;;;5050102;28;20083;-25
2023/07/21 06:36:19;;;;;;;8.15;3.25;;;19.10;99.90;;;;;;5040435;28;20124;-23
2023/07/21 06:38:45;;;;;;;7.97;3.72;;;19.60;99.90;;;;;;5036437;28;20037;-24
2023/07/21 06:41:11;;;;;;;7.88;3.95;;;20.10;99.90;;;;;;5045199;28;20111;-26
2023/07/21 06:43:36;;;;;;;5.07;3.17;;;20.30;1.00;;;;;;5031940;28;20049;-24
2023/07/21 06:46:12;;;;;;;4.07;3.28;;;20.50;99.90;;;;;;5050187;28;20048;-23
2023/07/21 06:48:40;;;;;;;8.00;3.58;;;20.70;99.90;;;;;;5041514;28;20513;-26
2023/07/21 06:51:09;;;;;;;3.60;3.03;;;21.00;82.80;;;;;;5035463;28;20048;-24
2023/07/21 06:53:39;;;;;;;5.32;2.97;;;20.50;99.90;;;;;;5022821;28;20081;-26
2023/07/21 06:56:05;;;;;;;3.50;2.25;;;20.00;99.90;;;;;;5034571;28;20042;-24
2023/07/21 06:58:35;;;;;;;4.57;2.95;;;19.70;1.00;;;;;;5040391;28;20041;-24
2023/07/21 07:01:01;;;;;;;4.97;2.33;;;19.40;1.00;;;;;;5041949;28;20040;-24
2023/07/21 07:03:31;;;;;;;5.05;2.80;;;19.00;1.00;;;;;;5063887;28;20128;-25
2023/07/21 07:06:04;;;;;;;3.50;2.30;;;18.70;99.90;;;;;;5060123;28;20524;-24
2023/07/21 07:08:30;;;;;;;;;;;18.50;99.90;;;;;;5055930;28;20098;-26
2023/07/21 07:10:58;;;;;;;4.35;2.20;;;18.30;99.90;;;;;;5053348;28;19925;-26
2023/07/21 07:13:26;;;;;;;2.80;2.05;;;18.40;99.90;;;;;;5053142;28;20552;-26
2023/07/21 07:15:55;;;;;;;9.00;2.35;;;18.50;99.90;;;;;;5054342;28;20060;-25
2023/07/21 07:18:21;;;;;;;4.72;2.67;;;18.60;99.90;;;;;;5044955;28;20063;-26
2023/07/21 07:20:52;;;;;;;3.22;2.33;;;18.70;91.70;;;;;;5035389;28;20556;-26
2023/07/21 07:23:21;;;;;;;2.75;2.10;;;18.60;99.90;;;;;;5046059;28;20511;-25
2023/07/21 07:25:49;;;;;;;3.08;2.53;;;18.40;1.00;;;;;;5056634;28;20049;-25
2023/07/21 07:28:18;;;;;;;4.32;2.85;;;18.20;71.10;;;;;;5056590;28;20033;-26
2023/07/21 07:30:49;;;;;;;3.83;2.05;;;18.10;99.90;;;;;;5056544;28;20478;-26
2023/07/21 07:33:17;;;;;;;3.40;1.85;;;17.90;99.90;;;;;;5056879;28;20057;-26
2023/07/21 07:35:50;;;;;;;3.90;2.35;;;17.80;99.90;;;;;;5055558;28;20138;-26
2023/07/21 07:38:24;;;;;;;4.97;2.85;;;17.80;99.90;;;;;;5039182;28;20054;-26
2023/07/21 07:40:50;;;;;;;3.42;2.60;;;17.80;1.00;;;;;;5044583;28;20118;-26
2023/07/21 07:43:21;;;;;;;3.88;2.90;;;17.90;99.90;;;;;;5019291;28;20085;-26
2023/07/21 07:45:47;;;;;;;3.72;2.80;;;18.00;1.00;;;;;;5036293;28;20128;-26
2023/07/21 07:48:14;;;;;;;4.68;3.05;;;18.10;1.00;;;;;;5035774;28;20056;-24
2023/07/21 07:50:41;;;;;;;5.15;2.83;;;18.20;99.90;;;;;;5044002;28;20076;-25
2023/07/21 07:53:14;;;;;;;3.22;2.70;;;18.40;99.90;;;;;;5057431;28;20055;-26
2023/07/21 07:55:43;;;;;;;4.13;2.45;;;18.40;99.90;;;;;;5057005;28;20049;-26
2023/07/21 07:58:09;;;;;;;3.92;2.40;;;18.30;99.90;;;;;;5048566;28;20099;-26
2023/07/21 08:00:38;;;;;;;3.38;2.30;;;18.30;99.90;;;;;;5050160;28;20047;-26
2023/07/21 08:03:14;;;;;;;2.75;2.25;;;18.20;6.20;;;;;;5057004;28;20044;-26
2023/07/21 08:05:42;;;;;;;2.92;1.70;;;18.40;86.70;;;;;;5056298;28;20076;-26
2023/07/21 08:08:10;;;;;;;2.38;1.65;;;18.50;20.40;;;;;;5055843;28;20127;-26
2023/07/21 08:10:40;;;;;;;1.85;1.38;;;18.70;1.00;;;;;;5054677;28;20045;-26
2023/07/21 08:13:11;;;;;;;2.28;1.52;;;18.80;99.90;;;;;;5039975;28;20510;-26
2023/07/21 08:15:43;;;;;;;1.80;1.52;;;18.80;99.90;;;;;;5036967;28;20064;-26
2023/07/21 08:18:15;;;;;;;1.67;1.40;;;18.60;99.90;;;;;;5027155;28;20045;-26
2023/07/21 08:20:43;;;;;;;2.35;1.80;;;18.70;99.90;;;;;;5054416;28;20048;-26
2023/07/21 08:23:09;;;;;;;3.05;2.10;;;18.80;99.90;;;;;;5054583;28;20049;-26
2023/07/21 08:25:35;;;;;;;4.00;1.20;;;19.10;99.90;;;;;;5055420;28;20044;-26
2023/07/21 08:28:08;;;;;;;2.63;1.55;;;19.30;1.00;;;;;;5054398;28;20391;-26
2023/07/21 08:30:37;;;;;;;3.35;2.15;;;19.60;99.90;;;;;;5053800;28;20056;-26
2023/07/21 08:33:06;;;;;;;2.10;1.70;;;20.00;99.90;;;;;;5048556;28;20041;-27
2023/07/21 08:35:32;;;;;;;3.00;2.22;;;20.50;1.00;;;;;;5055400;28;20045;-26
2023/07/21 08:37:58;;;;;;;2.33;1.88;;;20.30;1.00;;;;;;5054648;28;20131;-26
2023/07/21 08:40:24;;;;;;;2.95;1.77;;;20.40;99.90;;;;;;5055028;28;20555;-26
2023/07/21 08:42:54;;;;;;;4.25;1.95;;;20.60;99.90;;;;;;5051502;28;20037;-26
2023/07/21 08:45:20;;;;;;;3.40;2.40;;;20.80;99.90;;;;;;5055231;28;20107;-26
2023/07/21 08:47:53;;;;;;;4.28;2.38;;;20.90;99.90;;;;;;5054747;28;20037;-26
2023/07/21 08:50:21;;;;;;;;;;;20.90;99.90;;;;;;5056374;28;20123;-27
2023/07/21 08:52:47;;;;;;;4.18;2.38;;;;;;;;;;5035452;28;19920;-23
2023/07/21 08:55:14;;;;;;;4.43;2.20;;;21.90;99.90;;;;;;5051198;28;20049;-26
2023/07/21 08:57:43;;;;;;;2.60;1.65;;;22.60;99.90;;;;;;5054937;28;20449;-26
2023/07/21 09:00:14;;;;;;;1.83;1.10;;;22.90;1.00;;;;;;5052990;28;20041;-26
2023/07/21 09:02:45;;;;;;;14.02;4.28;;;22.70;1.00;;;;;;5036728;28;20115;-27
2023/07/21 09:05:16;;;;;;;5.85;2.15;;;23.40;1.00;;;;;;5034431;28;20051;-27
2023/07/21 09:07:42;;;;;;;13.77;4.13;;;23.20;1.00;;;;;;5042087;28;20049;-26
2023/07/21 09:10:10;;;;;;;4.10;1.52;;;22.70;1.00;;;;;;5055585;28;20071;-27
2023/07/21 09:12:40;;;;;;;2.67;1.30;;;22.00;1.00;;;;;;5053724;28;20445;-26
2023/07/21 09:15:11;;;;;;;2.10;1.25;;;21.50;1.00;;;;;;5053608;28;20484;-27
2023/07/21 09:17:45;;;;;;;4.85;1.27;;;21.20;11.10;;;;;;5054506;28;20040;-26
2023/07/21 09:20:11;;;;;;;2.05;1.27;;;20.80;99.90;;;;;;5051106;28;20067;-26
2023/07/21 09:22:47;;;;;;;4.00;1.65;;;20.40;99.90;;;;;;5045840;28;20399;-26
2023/07/21 09:25:22;;;;;;;2.88;1.90;;;20.20;1.00;;;;;;5053739;28;20426;-26
2023/07/21 09:27:57;;;;;;;1.25;0.90;;;20.50;99.90;;;;;;5054423;28;20529;-26
2023/07/21 09:30:26;;;;;;;2.10;0.77;;;20.90;1.00;;;;;;5054491;28;20061;-26
2023/07/21 09:32:54;;;;;;;1.52;0.57;;;21.50;99.90;;;;;;5034610;28;20060;-26
2023/07/21 09:35:21;;;;;;;2.22;0.73;;;22.00;1.00;;;;;;5035176;28;20045;-26
2023/07/21 09:37:52;;;;;;;1.10;0.70;;;21.80;1.00;;;;;;5034211;28;20048;-27
2023/07/21 09:40:30;;;;;;;2.22;0.80;;;21.20;99.90;;;;;;5034699;28;20050;-27
2023/07/21 09:43:02;;;;;;;1.63;0.82;;;21.00;99.90;;;;;;5042005;28;20063;-27
2023/07/21 09:45:31;;;;;;;2.10;1.17;;;21.00;99.90;;;;;;5019216;28;20041;-26
2023/07/21 09:47:57;;;;;;;2.63;1.02;;;20.80;99.90;;;;;;5042564;28;20049;-26
2023/07/21 09:50:23;;;;;;;2.55;0.80;;;20.70;99.90;;;;;;5036736;28;20128;-25
2023/07/21 09:52:53;;;;;;;3.00;0.85;;;20.80;99.90;;;;;;5010227;28;20095;-26
2023/07/21 09:55:24;;;;;;;0.60;0.45;;;20.50;1.00;;;;;;5033982;28;20053;-27
2023/07/21 09:57:50;;;;;;;2.25;0.85;;;20.20;1.00;;;;;;5017206;28;20068;-26
2023/07/21 10:00:26;;;;;;;1.48;0.85;;;20.00;1.00;;;;;;5032966;28;20049;-26
2023/07/21 10:03:04;;;;;;;0.93;0.60;;;20.00;1.00;;;;;;5032358;28;20451;-26
2023/07/21 10:05:33;;;;;;;3.47;1.33;;;20.20;9.60;;;;;;5016231;28;20046;-26
2023/07/21 10:08:09;;;;;;;1.35;0.73;;;20.50;1.00;;;;;;5033637;28;20554;-26
2023/07/21 10:10:35;;;;;;;2.55;0.65;;;20.80;1.00;;;;;;5032757;28;20045;-26
2023/07/21 10:13:05;;;;;;;2.25;0.75;;;20.70;1.00;;;;;;5034008;28;20517;-26
2023/07/21 10:15:40;;;;;;;1.63;0.80;;;21.00;99.90;;;;;;5034612;28;20399;-28
2023/07/21 10:18:16;;;;;;;1.92;1.30;;;20.70;56.00;;;;;;5033986;28;20471;-26
2023/07/21 10:20:58;;;;;;;3.42;0.93;;;20.60;1.00;;;;;;5033778;28;20056;-27
2023/07/21 10:23:30;;;;;;;3.05;1.33;;;20.30;1.00;;;;;;5033992;28;20048;-26
2023/07/21 10:25:58;;;;;;;1.90;1.27;;;19.90;99.90;;;;;;5033639;28;20128;-27
2023/07/21 10:28:36;;;;;;;3.10;1.20;;;19.70;99.90;;;;;;5032563;28;20049;-26
2023/07/21 10:31:21;;;;;;;2.17;1.27;;;19.60;1.00;;;;;;5038680;28;20064;-26
2023/07/21 10:34:14;;;;;;;2.55;1.58;;;19.70;1.00;;;;;;5051833;28;20052;-26
2023/07/21 10:36:52;;;;;;;2.03;1.60;;;19.90;1.00;;;;;;5044507;28;20056;-27
2023/07/21 10:39:31;;;;;;;3.45;1.60;;;20.00;1.00;;;;;;5032531;28;20053;-26
2023/07/21 10:41:59;;;;;;;2.53;1.77;;;20.50;1.00;;;;;;5056714;28;20435;-25
2023/07/21 10:44:37;;;;;;;1.30;1.10;;;20.80;1.00;;;;;;5064560;28;20048;-26
2023/07/21 10:47:09;;;;;;;1.60;1.00;;;20.80;99.90;;;;;;5056814;28;20120;-26
2023/07/21 10:49:37;;;;;;;2.00;1.00;;;20.70;99.90;;;;;;5050610;28;20048;-24
2023/07/21 10:52:06;;;;;;;2.80;2.50;;;20.80;99.20;;;;;;5039795;28;20053;-26
2023/07/21 10:54:41;;;;;;;3.72;1.65;;;20.60;1.00;;;;;;5055586;28;20049;-27
2023/07/21 10:57:10;;;;;;;3.15;1.40;;;20.70;99.90;;;;;;5050838;28;20483;-27
2023/07/21 10:59:36;;;;;;;4.20;1.95;;;20.70;99.90;;;;;;5036027;28;20083;-26
2023/07/21 11:02:04;;;;;;;2.42;1.60;;;20.50;99.90;;;;;;5036345;28;20050;-26
2023/07/21 11:04:33;;;;;;;3.72;1.75;;;20.50;99.90;;;;;;5049317;28;20063;-27
2023/07/21 11:07:05;;;;;;;3.13;2.00;;;20.70;99.90;;;;;;5057790;28;20417;-25
2023/07/21 11:09:33;;;;;;;4.20;1.95;;;21.20;99.90;;;;;;5036701;28;20045;-25
2023/07/21 11:12:03;;;;;;;3.10;2.20;;;21.40;99.90;;;;;;5040270;28;20429;-25
2023/07/21 11:14:29;;;;;;;2.75;1.63;;;22.20;1.00;;;;;;5045093;28;20052;-27
2023/07/21 11:16:57;;;;;;;2.97;1.40;;;22.40;99.90;;;;;;5043337;28;20394;-27
2023/07/21 11:19:29;;;;;;;2.25;1.70;;;22.20;99.90;;;;;;5044490;28;20041;-27
2023/07/21 11:22:02;;;;;;;3.28;1.45;;;21.90;99.90;;;;;;5046175;28;20501;-26
2023/07/21 11:24:29;;;;;;;2.58;1.48;;;21.90;99.90;;;;;;5057708;28;20308;-25
2023/07/21 11:27:18;;;;;;;2.25;1.40;;;22.30;99.90;;;;;;5052556;28;20045;-25
2023/07/21 11:29:46;;;;;;;3.08;1.52;;;22.10;99.90;;;;;;5052988;28;20095;-27
2023/07/21 11:32:24;;;;;;;3.15;1.70;;;22.00;99.90;;;;;;5063475;28;20048;-27
2023/07/21 11:34:59;;;;;;;2.83;1.83;;;22.30;99.90;;;;;;5038758;28;20395;-28
2023/07/21 11:37:25;;;;;;;1.83;1.42;;;22.60;99.90;;;;;;5049175;28;20036;-26
2023/07/21 11:39:56;;;;;;;2.80;1.40;;;22.20;99.90;;;;;;5050678;28;20049;-27
2023/07/21 11:42:21;;;;;;;1.92;1.38;;;21.80;99.90;;;;;;5056322;28;20048;-27
2023/07/21 11:44:52;;;;;;;3.67;1.50;;;22.00;99.90;;;;;;5056400;28;20048;-27
2023/07/21 11:47:18;;;;;;;3.53;1.60;;;21.80;99.90;;;;;;5054551;28;20111;-26
2023/07/21 11:49:46;;;;;;;4.18;2.28;;;20.90;99.90;;;;;;5045179;28;20042;-26
2023/07/21 11:52:23;;;;;;;4.47;2.38;;;19.10;99.90;;;;;;5052729;28;20040;-25
2023/07/21 11:54:48;;;;;;;4.18;2.40;;;17.90;1.00;;;;;;5053693;28;20049;-25
2023/07/21 11:57:14;;;;;;;6.10;2.70;;;17.50;99.90;;;;;;5044768;28;20123;-23
2023/07/21 11:59:42;;;;;;;3.50;2.15;;;17.50;99.90;;;;;;5056894;28;20045;-25
2023/07/21 12:02:08;;;;;;;4.40;2.30;;;17.50;99.90;;;;;;5040397;28;20107;-25
2023/07/21 12:04:37;;;;;;;10.02;3.42;;;17.60;99.90;;;;;;5018608;28;20041;-25
2023/07/21 12:07:03;;;;;;;3.80;2.45;;;17.70;99.90;;;;;;5036033;28;20068;-25
2023/07/21 12:09:31;;;;;;;4.85;2.28;;;17.70;1.00;;;;;;5035036;28;20053;-26
2023/07/21 12:11:57;;;;;;;4.00;2.17;;;17.50;1.00;;;;;;5024001;28;20045;-23
2023/07/21 12:14:24;;;;;;;4.53;2.10;;;17.50;99.90;;;;;;5057301;28;20037;-26
2023/07/21 12:16:53;;;;;;;5.00;2.35;;;17.60;99.90;;;;;;5055742;28;20053;-26
2023/07/21 12:19:24;;;;;;;5.93;1.80;;;17.80;99.90;;;;;;5056484;28;20048;-26
2023/07/21 12:21:51;;;;;;;4.05;1.83;;;18.30;1.00;;;;;;5056250;28;20056;-26
2023/07/21 12:24:18;;;;;;;3.92;2.17;;;18.80;99.90;;;;;;5055636;28;20045;-26
2023/07/21 12:26:45;;;;;;;3.78;1.90;;;19.10;99.90;;;;;;5058142;28;20047;-27
2023/07/21 12:29:10;;;;;;;6.15;1.92;;;19.20;1.00;;;;;;5041336;28;20064;-24
2023/07/21 12:31:38;;;;;;;6.53;2.40;;;18.90;1.00;;;;;;5055791;28;20057;-26
2023/07/21 12:34:05;;;;;;;3.55;2.17;;;18.30;99.90;;;;;;5028478;28;20049;-25
2023/07/21 12:36:30;;;;;;;3.05;2.20;;;17.70;99.90;;;;;;5035468;28;20103;-26
2023/07/21 12:38:57;;;;;;;5.00;2.40;;;17.40;99.90;;;;;;5034721;28;20053;-26
2023/07/21 12:41:22;;;;;;;4.07;2.45;;;16.90;99.90;;;;;;5035112;28;20049;-25
2023/07/21 12:43:50;;;;;;;3.70;1.65;;;16.60;91.00;;;;;;5034732;28;20049;-25
2023/07/21 12:46:16;;;;;;;5.28;3.13;;;16.40;99.90;;;;;;5045043;28;20041;-25
2023/07/21 12:48:50;;;;;;;8.82;2.38;;;16.00;99.90;;;;;;5055416;28;20086;-21
2023/07/21 12:51:21;;;;;;;8.05;3.38;;;;;;;;;;5054936;28;20047;-21
2023/07/21 12:53:47;;;;;;;8.05;3.60;;;14.00;99.90;;;;;;5055733;28;20052;-22
2023/07/21 12:56:12;;;;;;;7.20;3.47;;;13.50;99.90;;;;;;5055045;28;20049;-23
2023/07/21 12:58:38;;;;;;;6.22;3.55;;;13.40;99.90;;;;;;5037531;28;20139;-23